Terminal Aerodrome Forecast
Issued by NWS Paducah, KY

Home | Current Version | Previous Version | Text Only | Print | Product List | Glossary On
Versions: 1 2 3 4 5 6 7 8 9 10 11 12 13 14 15 16 17 18 19 20 21 22 23 24
874
FTUS43 KPAH 212320
TAFPAH
TAF
KPAH 212320Z 2200/2224 VRB03KT P6SM -RA OVC040
      TEMPO 2200/2204 4SM -RA BR OVC025
     FM220400 00000KT 4SM BR OVC018
     FM220900 00000KT 3/4SM BR BKN008
     FM221600 19004KT P6SM BKN020=

USA.gov is the U.S. government's official web portal to all federal, state and local government web resources and services.